Time;durP1;ratioP1;P1;durP2;ratioP2;P2;SDS_P1;SDS_P2;PMS_P1;PMS_P2;Temp;Humidity;BMP_temperature;BMP_pressure;BME280_temperature;BME280_humidity;BME280_pressure;Samples;Min_cycle;Max_cycle;Signal;HPM_P1;HPM_P2
2022/04/07 00:00:18;;;;;;;1.77;1.43;;;;;;;14.51;57.52;96085.38;5113688;28;20185;-69
2022/04/07 00:02:44;;;;;;;1.37;1.27;;;;;;;14.58;57.64;96094.09;5114160;28;20185;-70
2022/04/07 00:05:09;;;;;;;1.70;1.60;;;;;;;14.55;57.55;96081.31;5114073;28;20489;-70
2022/04/07 00:07:35;;;;;;;1.43;1.23;;;;;;;14.49;57.64;96084.75;5113709;28;20228;-70
2022/04/07 00:10:00;;;;;;;2.10;1.50;;;;;;;14.36;57.75;96069.00;5113996;27;20197;-70
2022/04/07 00:12:26;;;;;;;1.50;1.40;;;;;;;14.29;57.68;96069.78;5114065;28;20185;-70
2022/04/07 00:14:51;;;;;;;2.17;1.30;;;;;;;14.42;57.41;96076.88;5114154;28;20260;-70
2022/04/07 00:17:17;;;;;;;1.53;1.43;;;;;;;14.43;57.58;96077.69;5121943;27;20300;-70
2022/04/07 00:19:43;;;;;;;3.50;1.73;;;;;;;14.51;57.20;96072.19;5113804;28;20203;-69
2022/04/07 00:22:08;;;;;;;1.53;1.43;;;;;;;14.60;57.02;96070.16;5113735;28;20184;-71
2022/04/07 00:24:34;;;;;;;1.27;1.17;;;;;;;14.53;57.16;96070.16;5113479;28;20454;-70
2022/04/07 00:26:59;;;;;;;1.60;1.50;;;;;;;14.50;56.81;96065.31;5113490;28;20258;-70
2022/04/07 00:29:25;;;;;;;1.73;1.50;;;;;;;14.63;56.83;96053.09;5130373;27;20215;-70
2022/04/07 00:31:57;;;;;;;1.30;1.20;;;;;;;14.74;56.53;96047.25;5113481;28;20205;-70
2022/04/07 00:34:23;;;;;;;1.57;1.47;;;;;;;14.81;56.37;96047.22;5113517;28;20212;-71
2022/04/07 00:36:49;;;;;;;1.30;1.07;;;;;;;14.83;56.26;96040.75;5113390;28;20843;-71
2022/04/07 00:39:14;;;;;;;1.37;1.27;;;;;;;14.77;56.48;96043.41;5100954;27;20454;-70
2022/04/07 00:41:42;;;;;;;1.30;1.20;;;;;;;14.77;56.45;96040.75;5096291;28;20177;-71
2022/04/07 00:44:08;;;;;;;1.33;1.23;;;;;;;14.74;56.55;96039.34;5118198;28;20209;-70
2022/04/07 00:46:37;;;;;;;4.83;1.20;;;;;;;14.77;56.69;96043.41;5116047;28;20464;-71
2022/04/07 00:49:04;;;;;;;1.33;1.03;;;;;;;14.51;57.20;96045.03;5128651;27;20446;-71
2022/04/07 00:51:29;;;;;;;1.40;1.20;;;;;;;14.50;57.19;96033.66;5114397;27;20426;-70
2022/04/07 00:53:56;;;;;;;1.43;1.00;;;;;;;14.64;56.87;96031.00;5113109;28;20426;-72
2022/04/07 00:56:21;;;;;;;1.53;1.20;;;;;;;14.72;56.99;96036.09;5097944;27;20250;-71
2022/04/07 00:58:47;;;;;;;1.20;1.10;;;;;;;14.62;57.32;96022.53;5112933;28;20530;-70
2022/04/07 01:01:14;;;;;;;1.30;1.20;;;;;;;14.54;57.77;96023.53;5095296;28;20192;-70
2022/04/07 01:03:40;;;;;;;1.83;1.17;;;;;;;14.61;57.52;96018.25;5094664;28;20966;-70
2022/04/07 01:06:05;;;;;;;1.70;1.20;;;;;;;14.57;58.01;96013.38;5079359;28;20435;-71
2022/04/07 01:08:31;;;;;;;1.00;0.90;;;;;;;14.58;57.84;96022.94;5111721;27;20208;-72
2022/04/07 01:10:57;;;;;;;2.33;1.50;;;;;;;14.55;57.57;96010.16;5112600;28;20181;-72
2022/04/07 01:13:22;;;;;;;1.27;0.93;;;;;;;14.65;57.95;95993.06;5121277;27;20184;-71
2022/04/07 01:15:47;;;;;;;1.37;0.77;;;;;;;14.64;57.85;95994.09;5112791;28;20189;-70
2022/04/07 01:18:14;;;;;;;1.20;1.03;;;;;;;14.55;58.12;95998.81;5112788;28;20242;-71
2022/04/07 01:20:40;;;;;;;1.33;1.00;;;;;;;14.58;58.00;96009.75;5112233;28;20727;-72
2022/04/07 01:23:07;;;;;;;2.37;0.93;;;;;;;14.59;57.80;96000.81;5112655;28;20483;-71
2022/04/07 01:25:33;;;;;;;1.10;1.00;;;;;;;14.62;57.74;96004.06;5112195;28;21225;-71
2022/04/07 01:27:58;;;;;;;1.20;1.10;;;;;;;14.64;57.83;96002.00;5109194;27;20623;-71
2022/04/07 01:30:24;;;;;;;1.30;1.03;;;;;;;14.70;57.82;95996.75;5114203;27;20192;-71
2022/04/07 01:32:53;;;;;;;1.50;1.17;;;;;;;14.72;57.38;95999.19;5112383;28;20185;-71
2022/04/07 01:35:21;;;;;;;1.43;1.30;;;;;;;14.55;57.79;95996.97;5112087;28;20185;-72
2022/04/07 01:37:48;;;;;;;1.30;1.10;;;;;;;14.33;58.56;95985.06;5099567;27;20455;-71
2022/04/07 01:40:16;;;;;;;1.30;1.20;;;;;;;14.29;58.73;95985.47;5112084;28;20927;-71
2022/04/07 01:42:42;;;;;;;2.50;1.17;;;;;;;14.16;59.01;95979.41;5104092;28;20423;-72
2022/04/07 01:45:11;;;;;;;1.97;1.57;;;;;;;14.27;59.18;95970.88;5094964;28;20467;-70
2022/04/07 01:47:37;;;;;;;1.43;1.33;;;;;;;14.34;58.97;95970.88;5093272;27;20575;-72
2022/04/07 01:50:05;;;;;;;1.47;1.27;;;;;;;14.35;58.86;95973.28;5111877;28;20432;-72
2022/04/07 01:52:32;;;;;;;1.30;1.20;;;;;;;14.33;59.11;95970.03;5118351;27;20439;-72
2022/04/07 01:54:59;;;;;;;1.30;1.20;;;;;;;14.28;58.95;95968.03;5112006;28;20476;-68
2022/04/07 01:57:25;;;;;;;1.30;1.20;;;;;;;14.17;58.89;95975.78;5120364;27;21171;-72
2022/04/07 01:59:51;;;;;;;1.13;1.03;;;;;;;14.24;58.77;95966.03;5111757;28;20443;-71
2022/04/07 02:02:16;;;;;;;1.70;1.23;;;;;;;14.20;58.71;95965.63;5111750;28;20189;-68
2022/04/07 02:04:55;;;;;;;1.60;1.30;;;;;;;14.20;58.99;95964.78;5111763;28;20446;-71
2022/04/07 02:07:21;;;;;;;1.40;1.30;;;;;;;14.24;58.95;95956.28;5111844;28;20213;-71
2022/04/07 02:09:47;;;;;;;1.63;1.53;;;;;;;14.28;58.69;95959.34;5112138;27;20784;-72
2022/04/07 02:12:12;;;;;;;1.50;1.20;;;;;;;14.24;58.73;95953.63;5120008;27;20418;-72
2022/04/07 02:14:39;;;;;;;1.23;1.13;;;;;;;14.20;59.12;95956.91;5111722;28;20680;-70
2022/04/07 02:17:04;;;;;;;2.17;1.30;;;;;;;14.19;58.99;95953.47;5111849;28;20300;-71
2022/04/07 02:19:30;;;;;;;1.60;1.50;;;;;;;14.24;59.34;95956.28;5119743;27;20470;-71
2022/04/07 02:21:56;;;;;;;1.60;1.50;;;;;;;14.36;58.33;95955.66;5112024;28;20181;-72
2022/04/07 02:24:21;;;;;;;1.70;1.00;;;;;;;14.34;58.15;95950.59;5111829;28;20470;-72
2022/04/07 02:26:47;;;;;;;1.37;1.27;;;;;;;14.38;58.07;95948.34;5097611;28;20228;-71
2022/04/07 02:29:13;;;;;;;2.00;1.50;;;;;;;14.24;58.18;95956.28;5107725;28;20555;-72
2022/04/07 02:31:38;;;;;;;2.40;1.20;;;;;;;14.16;58.21;95951.22;5111155;28;20211;-72
2022/04/07 02:34:04;;;;;;;2.00;1.10;;;;;;;14.21;57.87;95950.63;5111529;28;20238;-72
2022/04/07 02:36:29;;;;;;;1.53;1.17;;;;;;;14.21;57.98;95951.44;5093306;28;20185;-72
2022/04/07 02:38:55;;;;;;;2.40;1.20;;;;;;;14.19;57.77;95948.19;5111457;28;20236;-72
2022/04/07 02:41:20;;;;;;;1.53;1.13;;;;;;;14.05;57.33;95944.75;5120119;28;20216;-73
2022/04/07 02:43:48;;;;;;;1.40;1.00;;;;;;;14.01;57.21;95937.47;5114871;28;20209;-71
2022/04/07 02:46:14;;;;;;;1.13;1.00;;;;;;;13.90;57.18;95944.97;5111947;28;20288;-72
2022/04/07 02:48:39;;;;;;;2.50;1.13;;;;;;;13.88;56.79;95944.38;5110929;28;21007;-72
2022/04/07 02:51:05;;;;;;;1.50;0.90;;;;;;;13.45;56.62;95931.63;5116500;28;20430;-72
2022/04/07 02:53:31;;;;;;;1.00;0.90;;;;;;;13.46;56.30;95941.94;5113048;27;20264;-72
2022/04/07 02:55:56;;;;;;;1.60;0.80;;;;;;;13.45;56.11;95931.63;5111871;28;20177;-72
2022/04/07 02:58:22;;;;;;;2.73;1.07;;;;;;;13.50;55.57;95926.56;5112443;28;20496;-72
2022/04/07 03:00:48;;;;;;;1.57;1.00;;;;;;;13.60;55.49;95941.97;5119117;27;20631;-71
2022/04/07 03:03:13;;;;;;;1.03;0.80;;;;;;;13.30;55.38;95919.44;5112001;28;20181;-70
2022/04/07 03:05:39;;;;;;;1.33;1.03;;;;;;;13.40;55.64;95920.88;5111281;28;20177;-72
2022/04/07 03:08:05;;;;;;;1.23;1.00;;;;;;;13.48;55.37;95926.78;5100981;28;20197;-71
2022/04/07 03:10:30;;;;;;;1.40;0.97;;;;;;;13.30;55.44;95919.44;5122560;27;20181;-71
2022/04/07 03:12:56;;;;;;;1.00;0.90;;;;;;;13.39;55.45;95924.50;5120805;28;20196;-72
2022/04/07 03:15:21;;;;;;;1.70;0.87;;;;;;;13.36;55.52;95917.81;5118438;27;20181;-72
2022/04/07 03:17:46;;;;;;;1.00;0.90;;;;;;;13.26;55.62;95920.84;5115970;28;20201;-72
2022/04/07 03:20:12;;;;;;;2.83;0.87;;;;;;;13.26;55.86;95920.84;5097804;28;20178;-73
2022/04/07 03:22:38;;;;;;;1.73;1.00;;;;;;;13.18;55.54;95921.84;5114628;28;20184;-73
2022/04/07 03:25:03;;;;;;;1.20;0.93;;;;;;;13.09;55.58;95922.25;5125794;27;20208;-73
2022/04/07 03:27:29;;;;;;;1.10;0.90;;;;;;;13.25;55.19;95918.44;5127163;27;20227;-72
2022/04/07 03:29:54;;;;;;;2.70;1.10;;;;;;;13.29;55.06;95917.81;5103123;28;20201;-72
2022/04/07 03:32:20;;;;;;;5.23;1.20;;;;;;;13.34;55.26;95915.41;5114334;28;20657;-73
2022/04/07 03:34:45;;;;;;;1.00;0.90;;;;;;;13.42;54.64;95900.44;5117803;28;20170;-71
2022/04/07 03:37:11;;;;;;;1.00;0.80;;;;;;;13.45;54.60;95900.84;5114463;28;20216;-70
2022/04/07 03:39:36;;;;;;;1.53;0.93;;;;;;;13.48;53.98;95905.72;5114461;27;20182;-70
2022/04/07 03:42:02;;;;;;;2.10;0.87;;;;;;;13.28;54.79;95899.63;5121015;28;20173;-70
2022/04/07 03:44:28;;;;;;;1.57;0.83;;;;;;;13.28;55.00;95897.78;5114178;28;20208;-70
2022/04/07 03:46:53;;;;;;;1.10;0.73;;;;;;;13.30;54.69;95897.56;5114459;28;20188;-72
2022/04/07 03:49:20;;;;;;;1.67;1.03;;;;;;;13.18;55.60;95894.75;5114026;28;20176;-70
2022/04/07 03:51:46;;;;;;;2.67;1.00;;;;;;;13.01;56.09;95900.38;5114780;27;20237;-71
2022/04/07 03:54:11;;;;;;;3.53;1.10;;;;;;;12.99;56.32;95885.81;5122077;27;20422;-72
2022/04/07 03:56:37;;;;;;;1.57;1.00;;;;;;;12.93;56.63;95881.34;5115450;27;20268;-72
2022/04/07 03:59:02;;;;;;;3.03;1.10;;;;;;;13.16;55.77;95887.06;5116453;27;20205;-69
2022/04/07 04:01:29;;;;;;;3.30;1.00;;;;;;;13.23;55.58;95881.81;5115921;27;20196;-71
2022/04/07 04:03:55;;;;;;;1.50;0.90;;;;;;;13.34;55.26;95883.84;5122233;27;20218;-70
2022/04/07 04:06:21;;;;;;;1.13;1.03;;;;;;;13.24;55.48;95880.78;5113462;28;20427;-70
2022/04/07 04:08:46;;;;;;;1.50;1.10;;;;;;;13.37;55.34;95877.34;5113591;28;20200;-71
2022/04/07 04:11:12;;;;;;;1.70;1.00;;;;;;;13.41;54.95;95872.53;5114470;28;20181;-71
2022/04/07 04:13:39;;;;;;;1.40;1.20;;;;;;;13.14;55.82;95861.94;5114237;28;20173;-71
2022/04/07 04:16:05;;;;;;;1.93;1.17;;;;;;;13.09;56.47;95859.13;5113535;28;20871;-71
2022/04/07 04:18:30;;;;;;;2.97;1.10;;;;;;;13.00;56.34;95858.50;5130465;27;20445;-70
2022/04/07 04:20:56;;;;;;;1.50;1.17;;;;;;;13.06;56.23;95850.63;5114001;28;20506;-70
2022/04/07 04:23:21;;;;;;;1.10;1.00;;;;;;;13.21;55.50;95858.31;5114339;28;20183;-70
2022/04/07 04:25:47;;;;;;;4.67;1.10;;;;;;;13.28;55.74;95847.00;5112152;28;20185;-71
2022/04/07 04:28:13;;;;;;;3.50;1.10;;;;;;;13.34;55.15;95831.22;5114079;28;20197;-70
2022/04/07 04:30:39;;;;;;;2.20;1.10;;;;;;;13.32;55.04;95825.34;5115882;27;20238;-71
2022/04/07 04:33:04;;;;;;;1.20;1.10;;;;;;;13.28;54.84;95834.63;5113029;28;20828;-70
2022/04/07 04:35:29;;;;;;;1.10;1.00;;;;;;;13.08;55.54;95847.00;5121232;27;20181;-70
2022/04/07 04:37:55;;;;;;;1.60;1.23;;;;;;;13.22;55.13;95843.34;5113582;28;20685;-71
2022/04/07 04:40:21;;;;;;;1.83;1.00;;;;;;;13.18;54.91;95842.13;5115835;28;20188;-71
2022/04/07 04:42:46;;;;;;;1.10;0.90;;;;;;;13.03;55.38;95842.34;5119477;27;20212;-72
2022/04/07 04:45:12;;;;;;;1.20;0.97;;;;;;;13.14;54.62;95838.28;5117026;27;20468;-73
2022/04/07 04:47:38;;;;;;;1.10;1.00;;;;;;;13.32;54.61;95835.03;5121234;27;20200;-72
2022/04/07 04:50:05;;;;;;;2.03;1.63;;;;;;;13.39;54.45;95835.03;5112890;28;20237;-72
2022/04/07 04:52:30;;;;;;;1.33;1.10;;;;;;;13.42;54.18;95821.50;5117833;27;20200;-71
2022/04/07 04:54:56;;;;;;;1.30;1.20;;;;;;;13.37;53.87;95824.72;5104370;27;20443;-72
2022/04/07 04:57:21;;;;;;;3.27;1.30;;;;;;;13.25;53.83;95821.88;5112836;28;20204;-71
2022/04/07 04:59:47;;;;;;;1.10;0.90;;;;;;;13.24;53.61;95819.47;5115533;27;20185;-71
2022/04/07 05:02:12;;;;;;;1.23;0.83;;;;;;;13.13;54.39;95818.25;5121103;27;20181;-72
2022/04/07 05:04:38;;;;;;;1.40;0.93;;;;;;;13.03;54.88;95816.84;5112415;28;20201;-72
2022/04/07 05:07:03;;;;;;;1.20;1.00;;;;;;;13.21;54.19;95807.53;5112473;28;20185;-72
2022/04/07 05:09:29;;;;;;;1.30;0.90;;;;;;;13.28;54.02;95784.66;5111532;28;20185;-72
2022/04/07 05:11:54;;;;;;;1.73;1.10;;;;;;;13.12;53.94;95800.84;5118635;27;20641;-72
2022/04/07 05:14:20;;;;;;;1.57;0.97;;;;;;;13.24;54.39;95796.59;5115248;27;20181;-72
2022/04/07 05:16:45;;;;;;;1.63;0.80;;;;;;;13.34;54.65;95804.06;5128222;27;20606;-73
2022/04/07 05:19:11;;;;;;;1.00;0.80;;;;;;;13.00;55.06;95806.72;5120864;27;20219;-71
2022/04/07 05:21:36;;;;;;;0.90;0.70;;;;;;;13.14;55.49;95793.56;5112172;28;20207;-72
2022/04/07 05:24:02;;;;;;;1.20;0.80;;;;;;;13.30;55.09;95790.53;5112189;27;20199;-73
2022/04/07 05:26:27;;;;;;;1.83;0.90;;;;;;;13.15;55.29;95789.94;5111024;27;20180;-73
2022/04/07 05:28:53;;;;;;;1.13;0.80;;;;;;;13.24;55.69;95804.47;5097291;28;20206;-72
2022/04/07 05:31:18;;;;;;;1.00;0.90;;;;;;;13.31;55.10;95794.78;5114676;27;20277;-72
2022/04/07 05:33:44;;;;;;;0.90;0.70;;;;;;;13.35;54.68;95793.38;5112031;28;20181;-72
2022/04/07 05:36:10;;;;;;;1.90;1.07;;;;;;;13.35;54.67;95793.38;5112412;28;20522;-75
2022/04/07 05:38:35;;;;;;;1.70;1.20;;;;;;;13.30;54.90;95787.91;5111413;28;20232;-71
2022/04/07 05:41:01;;;;;;;0.90;0.70;;;;;;;13.41;55.18;95789.13;5111611;28;20272;-71
2022/04/07 05:43:26;;;;;;;1.00;0.83;;;;;;;13.25;54.77;95792.16;5110858;28;20245;-71
2022/04/07 05:45:52;;;;;;;1.40;0.80;;;;;;;13.42;54.52;95796.00;5113859;27;20267;-72
2022/04/07 05:48:18;;;;;;;2.87;1.03;;;;;;;13.25;54.28;95777.16;5110786;28;20258;-72
2022/04/07 05:50:44;;;;;;;1.33;0.77;;;;;;;13.30;54.22;95781.81;5107964;27;20424;-72
2022/04/07 05:53:10;;;;;;;0.90;0.70;;;;;;;13.30;54.11;95764.22;5115896;27;20419;-71
2022/04/07 05:55:37;;;;;;;2.10;0.90;;;;;;;13.50;53.99;95768.66;5111486;28;20813;-71
2022/04/07 05:58:04;;;;;;;1.30;0.70;;;;;;;13.43;53.69;95760.78;5111884;28;20443;-71
2022/04/07 06:00:29;;;;;;;1.23;0.70;;;;;;;13.64;53.37;95762.34;5107920;28;20923;-71
2022/04/07 06:02:55;;;;;;;1.10;0.70;;;;;;;13.65;53.21;95748.19;5096847;28;20465;-71
2022/04/07 06:05:20;;;;;;;1.30;0.60;;;;;;;13.85;52.56;95742.06;5073457;28;20206;-71
2022/04/07 06:07:46;;;;;;;1.27;0.60;;;;;;;13.68;52.21;95736.41;5111283;28;20199;-70
2022/04/07 06:10:12;;;;;;;1.00;0.60;;;;;;;13.96;51.64;95728.22;5125804;27;20191;-72
2022/04/07 06:12:42;;;;;;;2.87;0.87;;;;;;;13.95;51.68;95723.97;5111476;28;20657;-71
2022/04/07 06:15:08;;;;;;;0.90;0.60;;;;;;;13.63;51.90;95721.25;5111630;28;20437;-71
2022/04/07 06:17:35;;;;;;;0.83;0.60;;;;;;;13.67;52.07;95722.47;5093311;28;20442;-71
2022/04/07 06:20:01;;;;;;;1.00;0.60;;;;;;;13.49;51.97;95709.13;5111477;28;20981;-71
2022/04/07 06:22:27;;;;;;;0.80;0.60;;;;;;;13.80;51.50;95708.41;5093342;28;20527;-71
2022/04/07 06:24:52;;;;;;;1.90;0.70;;;;;;;13.61;51.52;95714.59;5111095;28;20201;-71
2022/04/07 06:27:18;;;;;;;0.80;0.57;;;;;;;13.75;51.17;95699.53;5111605;28;20288;-72
2022/04/07 06:29:43;;;;;;;1.37;0.70;;;;;;;13.72;50.98;95721.03;5110893;28;20184;-71
2022/04/07 06:32:08;;;;;;;0.97;0.60;;;;;;;13.69;51.17;95719.59;5111072;28;20226;-71
2022/04/07 06:34:34;;;;;;;2.50;0.70;;;;;;;13.99;50.59;95703.28;5108414;28;20184;-72
2022/04/07 06:37:00;;;;;;;1.00;0.60;;;;;;;13.54;51.57;95709.34;5109245;28;20703;-71
2022/04/07 06:39:26;;;;;;;2.80;0.60;;;;;;;13.92;51.12;95715.69;5099421;28;20430;-71
2022/04/07 06:41:51;;;;;;;0.80;0.50;;;;;;;13.72;51.26;95708.66;5109442;28;20181;-70
2022/04/07 06:44:19;;;;;;;1.20;0.67;;;;;;;14.03;50.47;95698.41;5109240;28;20284;-71
2022/04/07 06:46:45;;;;;;;0.90;0.60;;;;;;;13.86;50.62;95706.78;5109664;28;20257;-71
2022/04/07 06:49:10;;;;;;;1.13;0.60;;;;;;;13.97;50.48;95700.06;5110286;28;20466;-71
2022/04/07 06:51:36;;;;;;;0.93;0.60;;;;;;;13.91;50.35;95704.34;5117481;28;20427;-71
2022/04/07 06:54:01;;;;;;;1.10;0.80;;;;;;;14.07;50.23;95702.22;5108500;28;20177;-71
2022/04/07 06:56:27;;;;;;;1.17;0.80;;;;;;;13.98;50.31;95691.97;5113264;27;20223;-71
2022/04/07 06:58:55;;;;;;;1.10;0.80;;;;;;;13.92;50.74;95702.53;5112521;28;20207;-71
2022/04/07 07:01:21;;;;;;;1.10;0.80;;;;;;;13.98;50.48;95710.41;5112586;28;20181;-70
2022/04/07 07:03:47;;;;;;;3.80;0.87;;;;;;;14.08;50.46;95709.13;5115528;28;20818;-71
2022/04/07 07:06:12;;;;;;;2.97;0.90;;;;;;;13.94;50.72;95711.81;5115373;28;20193;-70
2022/04/07 07:08:40;;;;;;;1.30;0.70;;;;;;;13.93;50.57;95699.66;5116676;27;20200;-70
2022/04/07 07:11:06;;;;;;;1.53;0.60;;;;;;;14.14;50.41;95689.81;5136246;27;20189;-71
2022/04/07 07:13:32;;;;;;;0.90;0.60;;;;;;;14.04;50.47;95686.84;5124934;27;20426;-70
2022/04/07 07:15:58;;;;;;;0.80;0.60;;;;;;;14.20;50.75;95691.63;5115101;28;20189;-70
2022/04/07 07:18:24;;;;;;;1.93;0.60;;;;;;;14.07;50.44;95676.69;5114727;28;20446;-69
2022/04/07 07:20:49;;;;;;;0.80;0.50;;;;;;;14.20;49.95;95665.28;5114972;28;20177;-70
2022/04/07 07:23:15;;;;;;;4.17;0.60;;;;;;;14.17;50.08;95660.44;5115529;28;20606;-70
2022/04/07 07:25:41;;;;;;;0.90;0.60;;;;;;;14.30;49.64;95654.28;5109270;27;20201;-70
2022/04/07 07:28:08;;;;;;;0.80;0.53;;;;;;;14.41;49.46;95645.69;5119893;27;20451;-70
2022/04/07 07:30:34;;;;;;;0.90;0.60;;;;;;;14.46;49.00;95631.03;5096318;28;20224;-70
2022/04/07 07:32:59;;;;;;;0.90;0.60;;;;;;;14.57;48.99;95639.06;5114836;28;20491;-70
2022/04/07 07:35:25;;;;;;;5.53;0.67;;;;;;;14.53;48.65;95629.16;5096342;28;20227;-70
2022/04/07 07:37:55;;;;;;;1.37;0.70;;;;;;;14.61;48.75;95643.91;5118880;28;20216;-70
2022/04/07 07:40:23;;;;;;;0.80;0.60;;;;;;;14.93;47.99;95638.56;5117965;27;20450;-70
2022/04/07 07:42:49;;;;;;;1.30;0.67;;;;;;;15.09;47.91;95616.91;5101056;28;20521;-71
2022/04/07 07:45:15;;;;;;;3.23;0.70;;;;;;;15.45;47.46;95623.19;5111837;28;20545;-70
2022/04/07 07:47:42;;;;;;;0.80;0.60;;;;;;;15.42;47.11;95622.81;5107581;28;20270;-71
2022/04/07 07:50:08;;;;;;;1.33;0.60;;;;;;;15.25;47.48;95619.97;5120148;28;20934;-71
2022/04/07 07:52:34;;;;;;;1.20;0.73;;;;;;;15.39;47.21;95616.13;5117921;27;20242;-70
2022/04/07 07:54:59;;;;;;;1.97;0.70;;;;;;;15.21;47.55;95616.94;5127028;27;20168;-71
2022/04/07 07:57:25;;;;;;;1.60;0.63;;;;;;;15.38;47.55;95609.25;5117248;28;20715;-70
2022/04/07 07:59:51;;;;;;;1.10;0.60;;;;;;;15.30;47.50;95606.91;5114586;28;20188;-72
2022/04/07 08:02:18;;;;;;;1.03;0.60;;;;;;;15.28;47.17;95601.03;5113888;28;20423;-70
2022/04/07 08:04:44;;;;;;;2.13;0.70;;;;;;;15.22;47.20;95601.94;5114030;28;20236;-70
2022/04/07 08:07:11;;;;;;;2.07;0.80;;;;;;;15.37;47.18;95610.28;5114106;28;20478;-71
2022/04/07 08:09:36;;;;;;;1.70;0.60;;;;;;;15.01;47.58;95617.16;5113383;27;20953;-71
2022/04/07 08:12:02;;;;;;;1.00;0.60;;;;;;;14.98;47.56;95596.53;5113769;28;20510;-72
2022/04/07 08:14:28;;;;;;;1.10;0.77;;;;;;;15.26;47.02;95579.34;5113767;28;20233;-71
2022/04/07 08:16:54;;;;;;;0.90;0.60;;;;;;;15.56;46.85;95565.38;5114040;28;20419;-71
2022/04/07 08:19:20;;;;;;;1.67;0.60;;;;;;;15.60;46.53;95563.91;5113424;28;20490;-71
2022/04/07 08:21:46;;;;;;;3.20;0.80;;;;;;;15.64;46.44;95568.50;5100029;28;20262;-71
2022/04/07 08:24:11;;;;;;;1.70;0.60;;;;;;;15.65;46.26;95548.19;5118062;27;20866;-71
2022/04/07 08:26:37;;;;;;;1.63;0.70;;;;;;;15.58;46.09;95550.13;5113869;28;20707;-72
2022/04/07 08:29:02;;;;;;;2.03;0.80;;;;;;;15.82;46.13;95541.25;5097429;28;20506;-71
2022/04/07 08:31:28;;;;;;;0.80;0.50;;;;;;;15.70;46.12;95539.59;5093437;28;20668;-72
2022/04/07 08:33:53;;;;;;;3.00;0.90;;;;;;;15.52;45.88;95547.34;5113825;28;20550;-71
2022/04/07 08:36:19;;;;;;;1.53;0.80;;;;;;;15.68;46.12;95546.94;5114006;27;20608;-70
2022/04/07 08:38:44;;;;;;;3.00;0.70;;;;;;;15.87;45.75;95535.31;5121666;27;20227;-70
2022/04/07 08:41:11;;;;;;;3.70;1.00;;;;;;;15.81;45.74;95537.00;5122100;27;20177;-71
2022/04/07 08:43:42;;;;;;;1.20;0.60;;;;;;;15.85;45.57;95544.50;5113295;28;20188;-71
2022/04/07 08:46:08;;;;;;;1.73;0.60;;;;;;;15.67;46.39;95546.13;5113503;28;20419;-71
2022/04/07 08:48:44;;;;;;;1.00;0.80;;;;;;;16.26;45.39;95548.09;5113022;28;20951;-70
2022/04/07 08:51:10;;;;;;;1.30;0.67;;;;;;;16.38;44.78;95519.84;5117976;27;20422;-71
2022/04/07 08:53:37;;;;;;;3.13;0.60;;;;;;;16.50;44.38;95511.91;5102361;28;20449;-70
2022/04/07 08:56:04;;;;;;;4.73;0.60;;;;;;;16.43;44.05;95511.25;5098094;28;20431;-71
2022/04/07 08:58:30;;;;;;;1.33;0.60;;;;;;;16.61;44.12;95507.66;5121360;27;20887;-71
2022/04/07 09:00:56;;;;;;;4.97;0.50;;;;;;;16.62;43.58;95525.13;5113015;28;20582;-71
2022/04/07 09:03:22;;;;;;;1.63;0.60;;;;;;;16.32;43.99;95496.97;5113157;28;20446;-71
2022/04/07 09:05:54;;;;;;;1.43;0.50;;;;;;;16.38;43.38;95480.19;5113218;28;20261;-70
2022/04/07 09:08:20;;;;;;;2.27;0.53;;;;;;;16.36;43.59;95492.03;5113332;28;20470;-71
2022/04/07 09:10:54;;;;;;;2.67;0.70;;;;;;;16.15;44.04;95490.75;5098760;28;20951;-71
2022/04/07 09:13:20;;;;;;;0.80;0.40;;;;;;;16.09;44.13;95489.84;5118387;27;20183;-71
2022/04/07 09:15:46;;;;;;;0.87;0.60;;;;;;;16.07;44.53;95505.13;5112703;28;20498;-71
2022/04/07 09:18:11;;;;;;;0.90;0.50;;;;;;;15.86;44.83;95480.06;5112606;28;20201;-71
2022/04/07 09:20:42;;;;;;;1.47;0.60;;;;;;;15.74;45.25;95494.03;5112265;28;20184;-72
2022/04/07 09:23:11;;;;;;;5.37;0.60;;;;;;;15.68;45.02;95481.72;5127780;27;20185;-71
2022/04/07 09:25:43;;;;;;;0.80;0.53;;;;;;;15.93;44.69;95486.88;5112862;27;20832;-72
2022/04/07 09:28:10;;;;;;;0.80;0.50;;;;;;;15.96;44.71;95486.38;5095544;28;20475;-71
2022/04/07 09:30:37;;;;;;;0.90;0.53;;;;;;;15.96;44.71;95475.03;5093405;28;20439;-71
2022/04/07 09:33:03;;;;;;;0.80;0.50;;;;;;;15.72;44.94;95490.81;5112189;28;20897;-71
2022/04/07 09:35:28;;;;;;;0.80;0.50;;;;;;;15.70;44.86;95471.75;5112119;28;20419;-70
2022/04/07 09:38:00;;;;;;;2.50;0.60;;;;;;;15.81;44.74;95464.88;5112254;28;20681;-70
2022/04/07 09:40:26;;;;;;;1.73;0.70;;;;;;;15.73;45.98;95481.88;5112257;27;20201;-71
2022/04/07 09:42:58;;;;;;;1.20;0.60;;;;;;;15.75;46.82;95473.72;5120958;27;20429;-72
2022/04/07 09:45:24;;;;;;;1.00;0.60;;;;;;;15.66;47.01;95475.88;5094194;28;20212;-73
2022/04/07 09:47:49;;;;;;;12.47;0.70;;;;;;;15.58;47.42;95468.28;5117090;27;20517;-70
2022/04/07 09:50:29;;;;;;;1.10;0.70;;;;;;;15.55;47.11;95479.28;5132324;27;20271;-71
2022/04/07 09:52:54;;;;;;;1.57;0.60;;;;;;;15.41;47.72;95465.50;5118479;27;20185;-71
2022/04/07 09:55:21;;;;;;;2.43;0.60;;;;;;;15.55;47.87;95444.97;5097283;28;20480;-71
2022/04/07 09:57:47;;;;;;;1.47;0.60;;;;;;;15.71;47.03;95452.22;5098007;28;20240;-71
2022/04/07 10:00:13;;;;;;;1.00;0.60;;;;;;;15.77;46.75;95438.09;5090270;28;20463;-72
2022/04/07 10:02:38;;;;;;;1.00;0.80;;;;;;;15.89;46.61;95432.06;5120319;27;20204;-71
2022/04/07 10:05:04;;;;;;;1.43;0.60;;;;;;;15.97;46.34;95429.09;5095556;28;20534;-71
2022/04/07 10:07:30;;;;;;;0.90;0.50;;;;;;;16.02;46.05;95439.75;5092164;28;20628;-70
2022/04/07 10:09:56;;;;;;;0.80;0.50;;;;;;;15.75;46.06;95426.97;5111547;27;20189;-71
2022/04/07 10:12:23;;;;;;;7.13;0.60;;;;;;;15.80;46.10;95416.53;5091166;28;20288;-71
2022/04/07 10:14:49;;;;;;;2.60;0.57;;;;;;;16.01;45.61;95413.56;5111751;28;20427;-71
2022/04/07 10:17:14;;;;;;;1.00;0.50;;;;;;;16.16;45.20;95421.03;5093676;28;20785;-71
2022/04/07 10:19:51;;;;;;;1.37;0.63;;;;;;;16.15;44.98;95424.69;5093162;28;20422;-71
2022/04/07 10:22:32;;;;;;;1.73;0.70;;;;;;;16.02;45.14;95410.69;5093487;28;20673;-70
2022/04/07 10:25:03;;;;;;;4.80;0.60;;;;;;;16.17;44.70;95397.03;5110175;28;20924;-70
2022/04/07 10:27:29;;;;;;;0.80;0.50;;;;;;;16.31;44.41;95410.78;5093466;28;20439;-70
2022/04/07 10:30:09;;;;;;;1.13;0.50;;;;;;;16.32;44.50;95393.91;5096335;28;20448;-70
2022/04/07 10:32:39;;;;;;;1.97;0.60;;;;;;;16.09;44.78;95386.81;5113551;27;20422;-70
2022/04/07 10:35:05;;;;;;;1.10;0.50;;;;;;;16.34;44.63;95410.34;5116563;27;20415;-71
2022/04/07 10:37:46;;;;;;;1.20;0.63;;;;;;;15.95;45.29;95392.31;5111296;28;20547;-71
2022/04/07 10:40:33;;;;;;;2.67;0.50;;;;;;;16.07;45.44;95379.13;5102182;28;20436;-72
2022/04/07 10:43:13;;;;;;;1.00;0.67;;;;;;;16.08;45.77;95408.97;5105797;28;20477;-72
2022/04/07 10:45:43;;;;;;;0.90;0.50;;;;;;;16.04;45.89;95371.66;5111236;28;20795;-71
2022/04/07 10:48:15;;;;;;;2.10;0.50;;;;;;;16.24;45.48;95351.97;5094447;28;20451;-71
2022/04/07 10:50:47;;;;;;;1.00;0.50;;;;;;;15.97;45.94;95374.41;5120890;27;20501;-71
2022/04/07 10:53:19;;;;;;;0.80;0.50;;;;;;;16.15;45.88;95366.56;5115145;27;20427;-70
2022/04/07 10:56:05;;;;;;;0.97;0.60;;;;;;;16.32;45.50;95356.09;5102749;28;20426;-70
2022/04/07 10:58:47;;;;;;;0.90;0.50;;;;;;;16.41;45.29;95355.50;5111196;28;20529;-71
2022/04/07 11:01:14;;;;;;;1.10;0.60;;;;;;;16.34;45.41;95346.91;5093614;28;20426;-70
2022/04/07 11:03:41;;;;;;;0.80;0.40;;;;;;;16.27;45.63;95354.97;5119094;28;20915;-70
2022/04/07 11:06:07;;;;;;;1.53;0.50;;;;;;;16.46;45.07;95356.63;5111372;28;20419;-69
2022/04/07 11:08:33;;;;;;;3.90;0.60;;;;;;;16.37;45.39;95364.94;5119668;27;20460;-70
2022/04/07 11:10:59;;;;;;;0.80;0.40;;;;;;;16.34;45.27;95354.00;5111022;28;20476;-70
2022/04/07 11:13:42;;;;;;;1.13;0.50;;;;;;;16.40;45.21;95340.66;5119522;28;20945;-71
2022/04/07 11:16:19;;;;;;;0.80;0.50;;;;;;;16.43;44.87;95342.84;5098642;28;20181;-71
2022/04/07 11:18:58;;;;;;;3.87;0.60;;;;;;;16.44;44.76;95309.28;5110921;28;21007;-71
2022/04/07 11:21:25;;;;;;;1.00;0.50;;;;;;;16.53;44.62;95352.00;5092963;28;20449;-71
2022/04/07 11:23:52;;;;;;;0.80;0.50;;;;;;;16.58;44.34;95338.88;5096520;28;20420;-71
2022/04/07 11:26:21;;;;;;;0.90;0.50;;;;;;;16.50;44.44;95350.63;5107192;28;20949;-70
2022/04/07 11:29:07;;;;;;;1.43;0.50;;;;;;;16.58;44.53;95312.44;5111424;28;20950;-71
2022/04/07 11:31:48;;;;;;;2.13;0.53;;;;;;;16.27;44.80;95356.78;5110644;28;20423;-71